NEODyS-2

Near Earth Objects - Dynamic Site
NEODyS ∴ Observatories ∴ Site 691 ∴ Obs & residuals
Contact »
691  ▹ 
OBSERVATIONS AND RESIDUALS

691-Steward Observatory, Kitt Peak-Spacewatch

Detections | Residuals | Detections & Residuals

[1-200] [201-400] [401-600] [601-800] [801-1000] [1001-1200] [1201-1400] [1401-1600] [1601-1800] [1801-2000] [2001-2200] [2201-2400] [2401-2600] [2601-2800] [2801-3000] [3001-3200] [3201-3400] [3401-3600] [3601-3800] [3801-4000] [4001-4200] [4201-4400] [4401-4600] [4601-4800] [4801-5000] [5001-5200] [5201-5400] [5401-5600] [5601-5800] [5801-6000] [6001-6200] [6201-6400] [6401-6600] [6601-6800] [6801-7000] [7001-7200] [7201-7400] [7401-7600] [7601-7800] [7801-8000] [8001-8200] [8201-8400] [8401-8600] [8601-8800] [8801-9000] [9001-9200] [9201-9400] [9401-9600] [9601-9800] [9801-10000] [10001-10200] [10201-10400] [10401-10600] [10601-10800] [10801-11000] [11001-11200] [11201-11400] [11401-11600] [11601-11800] [11801-12000] [12001-12200] [12201-12400] [12401-12600] [12601-12800] [12801-13000] [13001-13200] [13201-13400] [13401-13600] [13601-13800] [13801-14000] [14001-14200] [14201-14400] [14401-14600] [14601-14800] [14801-15000] [15001-15200] [15201-15400] [15401-15600] [15601-15800] [15801-16000] [16001-16200] [16201-16400] [16401-16600] [16601-16800] [16801-17000] [17001-17200] [17201-17400] [17401-17600] [17601-17800] [17801-18000] [18001-18200] [18201-18400] [18401-18600] [18601-18800] [18801-19000] [19001-19200] [19201-19400] [19401-19600] [19601-19800] [19801-20000] [20001-20200] [20201-20400] [20401-20600] [20601-20800] [20801-21000] [21001-21200] [21201-21400] [21401-21600] [21601-21800] [21801-22000] [22001-22200] [22201-22400] [22401-22600] [22601-22800] [22801-23000] [23001-23200] [23201-23400] [23401-23600] [23601-23800] [23801-24000] [24001-24200] [24201-24400] [24401-24600] [24601-24800] [24801-25000] [25001-25200] [25201-25400] [25401-25600] [25601-25800] [25801-26000] [26001-26200] [26201-26400] [26401-26600] [26601-26800] [26801-27000] [27001-27200] [27201-27400] [27401-27600] [27601-27800] [27801-28000] [28001-28200] [28201-28400] [28401-28600] [28601-28800] [28801-29000] [29001-29200] [29201-29400] [29401-29600] [29601-29800] [29801-30000] [30001-30200] [30201-30400] [30401-30600] [30601-30800] [30801-31000] [31001-31200] [31201-31400] [31401-31600] [31601-31800] [31801-32000] [32001-32200] [32201-32400] [32401-32600] [32601-32800] [32801-33000] [33001-33200] [33201-33400] [33401-33600] [33601-33800] [33801-34000] [34001-34200] [34201-34400] [34401-34600] [34601-34800] [34801-35000] [35001-35200] [35201-35400] [35401-35600] [35601-35800] [35801-36000] [36001-36200] [36201-36400] [36401-36600] [36601-36800] [36801-37000] [37001-37200] [37201-37400] [37401-37600] [37601-37800] [37801-38000] [38001-38200] [38201-38400] [38401-38600] [38601-38800] [38801-39000] [39001-39200] [39201-39400] [39401-39600] [39601-39800] [39801-40000] [40001-40200] [40201-40400] [40401-40600] [40601-40800] [40801-41000] [41001-41200] [41201-41400] [41401-41600] [41601-41800] [41801-42000] [42001-42200] [42201-42400] [42401-42600] [42601-42800] [42801-43000] [43001-43200] [43201-43400] [43401-43600] [43601-43800] [43801-44000] [44001-44200] [44201-44400] [44401-44600] [44601-44800] [44801-45000] [45001-45200] [45201-45400] [45401-45600] [45601-45800] [45801-46000] [46001-46200] [46201-46400] [46401-46600] [46601-46800] [46801-47000] [47001-47200] [47201-47400] [47401-47600] [47601-47800] [47801-48000] [48001-48200] [48201-48400] [48401-48600] [48601-48800] [48801-49000] [49001-49200] [49201-49400] [49401-49600] [49601-49800] [49801-50000] [50001-50200] [50201-50388]

Designation T Tech N Date Right Ascension Declination Apparent Magnitude Star Catalog Site code χ Used A Used M
yr-mo-day precision hr:min:sec precision rms F bias residual deg min sec precision rms F bias residual mag/col rms residual
2016KL O C H 2016-05-31.31580 1.000E-05 16:14:35.570 1.500E-01 0.500 F 0.180 -0.124 +04° 53' 44.60" 1.000E-01 0.500 F 0.179 -0.542 20.8 V 0.70 -0.19 o 691 1.12 Yes Yes
2016KL O C H 2016-05-31.31811 1.000E-05 16:14:35.870 1.500E-01 0.500 F 0.180 0.609 +04° 53' 35.30" 1.000E-01 0.500 F 0.179 -1.057 o 691 2.46 Yes No
2014HM187 O C H 2016-05-31.32552 1.000E-05 16:30:04.180 1.500E-01 0.500 F 0.097 0.972 -21° 17' 16.40" 1.000E-01 0.500 F 0.017 -1.124 o 691 3.02 Yes No
2014HM187 O C H 2016-05-31.32819 1.000E-05 16:30:03.850 1.500E-01 0.500 F 0.097 0.226 -21° 17' 15.50" 1.000E-01 0.500 F 0.017 -0.676 o 691 1.44 Yes No
2016KS O C H 2016-05-31.33334 1.000E-05 16:18:57.420 1.500E-01 0.500 F 0.241 -0.881 +02° 56' 27.40" 1.000E-01 0.500 F 0.129 0.013 20.0 V 0.70 -0.10 o 691 1.80 Yes Yes
2016KS O C H 2016-05-31.33504 1.000E-05 16:18:57.440 1.500E-01 0.500 F 0.241 0.096 +02° 56' 10.60" 1.000E-01 0.500 F 0.129 -0.364 20.2 V 0.70 0.10 o 691 0.78 Yes Yes
2016KS O C H 2016-05-31.33674 1.000E-05 16:18:57.390 1.500E-01 0.500 F 0.241 0.023 +02° 55' 54.50" 1.000E-01 0.500 F 0.129 -0.041 20.2 V 0.70 0.10 o 691 0.10 Yes Yes
2006UB64 O C H 2016-05-31.34803 1.000E-05 16:44:52.970 1.500E-01 0.500 F 0.020 0.500 -01° 04' 34.80" 1.000E-01 0.500 F 0.027 -1.471 o 691 3.14 Yes No
2006UB64 O C H 2016-05-31.35125 1.000E-05 16:44:52.410 1.500E-01 0.500 F 0.020 -1.129 -01° 04' 36.00" 1.000E-01 0.500 F 0.027 -0.502 o 691 2.49 Yes No
2006UB64 O C H 2016-05-31.35451 1.000E-05 16:44:52.020 1.500E-01 0.500 F 0.020 -0.126 -01° 04' 38.10" 1.000E-01 0.500 F 0.027 -0.406 o 691 0.86 Yes No
2016EE158 O C H 2016-05-31.35761 1.000E-05 16:48:32.880 1.500E-01 0.500 F 0.308 0.184 +07° 51' 22.80" 1.000E-01 0.500 F 0.093 -1.338 o 691 2.72 Yes No
2016EE158 O C H 2016-05-31.36061 1.000E-05 16:48:33.320 1.500E-01 0.500 F 0.308 0.114 +07° 51' 21.30" 1.000E-01 0.500 F 0.093 -0.528 o 691 1.09 Yes No
2016EE158 O C H 2016-05-31.36362 1.000E-05 16:48:33.790 1.500E-01 0.500 F 0.308 0.462 +07° 51' 18.60" 1.000E-01 0.500 F 0.093 -0.906 o 691 2.04 Yes No
2016JE34 O C H 2016-05-31.36661 1.000E-05 17:35:42.600 1.500E-01 0.500 F -0.015 0.198 +10° 50' 41.50" 1.000E-01 0.500 F 0.171 -0.232 21.0 V 0.70 0.31 o 691 0.61 Yes Yes
2016JE34 O C H 2016-05-31.36966 1.000E-05 17:35:42.730 1.500E-01 0.500 F -0.015 0.062 +10° 50' 44.10" 1.000E-01 0.500 F 0.171 0.003 21.0 V 0.70 0.31 o 691 0.12 Yes Yes
2016JE34 O C H 2016-05-31.37270 1.000E-05 17:35:42.870 1.500E-01 0.500 F -0.015 0.079 +10° 50' 46.40" 1.000E-01 0.500 F 0.171 -0.053 20.9 V 0.70 0.21 o 691 0.19 Yes Yes
2016KC4 O C H 2016-05-31.39388 1.000E-05 17:03:34.050 1.500E-01 0.500 F 0.157 0.815 +07° 16' 17.40" 1.000E-01 0.500 F 0.177 0.186 o 691 1.68 Yes No
2016KC4 O C H 2016-05-31.39619 1.000E-05 17:03:33.760 1.500E-01 0.500 F 0.157 0.226 +07° 16' 11.60" 1.000E-01 0.500 F 0.177 0.008 20.5 V 0.70 0.02 o 691 0.45 Yes Yes
2016KC4 O C H 2016-05-31.39855 1.000E-05 17:03:33.500 1.500E-01 0.500 F 0.157 0.161 +07° 16' 04.90" 1.000E-01 0.500 F 0.177 -0.945 o 691 1.93 Yes No
2016JN17 O C H 2016-05-31.42432 1.000E-05 15:18:09.300 1.500E-01 0.500 F 0.231 0.942 +17° 34' 30.60" 1.000E-01 0.500 F 0.161 -0.141 o 691 1.91 Yes No
2016JN17 O C H 2016-05-31.42895 1.000E-05 15:18:08.450 1.500E-01 0.500 F 0.231 -0.350 +17° 34' 18.40" 1.000E-01 0.500 F 0.161 -0.124 21.0 V 0.70 0.36 o 691 0.75 Yes Yes
2016JH17 O C H 2016-05-31.43128 1.000E-05 16:01:42.280 1.500E-01 0.500 F 0.130 0.021 +01° 45' 41.80" 1.000E-01 0.500 F 0.092 0.001 20.3 V 0.70 0.03 o 691 0.04 Yes Yes
2016JH17 O C H 2016-05-31.43358 1.000E-05 16:01:41.860 1.500E-01 0.500 F 0.130 -0.017 +01° 45' 37.90" 1.000E-01 0.500 F 0.092 0.281 20.4 V 0.70 0.13 o 691 0.57 Yes Yes
2016JH17 O C H 2016-05-31.43588 1.000E-05 16:01:41.420 1.500E-01 0.500 F 0.130 -0.358 +01° 45' 33.60" 1.000E-01 0.500 F 0.092 0.162 20.3 V 0.70 0.03 o 691 0.79 Yes Yes
2016KZ O C H 2016-05-31.43818 1.000E-05 17:17:44.040 1.500E-01 0.500 F 0.122 0.410 +09° 48' 58.90" 1.000E-01 0.500 F 0.129 -0.787 o 691 1.79 Yes No
2016KZ O C H 2016-05-31.44166 1.000E-05 17:17:43.800 1.500E-01 0.500 F 0.122 0.263 +09° 49' 01.00" 1.000E-01 0.500 F 0.129 -0.020 o 691 0.53 Yes No
2016KZ O C H 2016-05-31.44515 1.000E-05 17:17:43.570 1.500E-01 0.500 F 0.122 0.270 +09° 49' 01.90" 1.000E-01 0.500 F 0.129 -0.456 o 691 1.07 Yes No
2016JB6 O C H 2016-06-01.20659 1.000E-05 13:20:44.730 1.500E-01 0.500 F 0.197 0.433 +02° 17' 32.90" 1.000E-01 0.500 F 0.204 -0.711 o 691 1.68 Yes No
2016JB6 O C H 2016-06-01.21428 1.000E-05 13:20:44.390 1.500E-01 0.500 F 0.197 0.654 +02° 17' 26.90" 1.000E-01 0.500 F 0.204 -0.496 21.5 V 0.70 0.28 o 691 1.66 Yes Yes
2016JB6 O C H 2016-06-01.22202 1.000E-05 13:20:43.940 1.500E-01 0.500 F 0.197 -0.750 +02° 17' 21.40" 1.000E-01 0.500 F 0.204 0.261 21.6 V 0.70 0.38 o 691 1.61 Yes Yes
2016JN17 O C H 2016-06-01.35967 1.000E-05 15:15:40.260 1.500E-01 0.500 F 0.110 0.237 +16° 53' 16.30" 1.000E-01 0.500 F 0.193 -0.124 20.7 V 0.70 0.07 o 691 0.54 Yes Yes
2016JN17 O C H 2016-06-01.36197 1.000E-05 15:15:39.880 1.500E-01 0.500 F 0.110 0.226 +16° 53' 10.80" 1.000E-01 0.500 F 0.193 0.599 20.9 V 0.70 0.27 o 691 1.29 Yes Yes
2016JH17 O C H 2016-06-01.36661 1.000E-05 15:58:55.940 1.500E-01 0.500 F 0.126 -0.309 +01° 16' 55.30" 1.000E-01 0.500 F 0.132 -0.223 20.5 V 0.70 0.25 o 691 0.76 Yes Yes
2016JH17 O C H 2016-06-01.37144 1.000E-05 15:58:55.070 1.500E-01 0.500 F 0.126 0.062 +01° 16' 46.20" 1.000E-01 0.500 F 0.132 -0.253 20.6 V 0.70 0.35 o 691 0.52 Yes Yes
2002LT24 O C m 2016-06-02.17025 1.000E-05 10:16:49.420 1.500E-01 0.500 F 0.142 -0.250 +17° 39' 39.10" 1.000E-01 0.500 F 0.245 -0.944 o 691 1.99 Yes No
2002LT24 O C m 2016-06-02.17195 1.000E-05 10:16:50.730 1.500E-01 0.500 F 0.142 0.113 +17° 39' 31.30" 1.000E-01 0.500 F 0.245 -0.299 o 691 0.65 Yes No
2002LT24 O C m 2016-06-02.17367 1.000E-05 10:16:52.070 1.500E-01 0.500 F 0.142 0.685 +17° 39' 22.10" 1.000E-01 0.500 F 0.245 -0.954 o 691 2.41 Yes No
2006GY2 O C H 2016-06-02.17570 1.000E-05 10:30:49.480 1.500E-01 0.500 F 0.087 0.375 +31° 14' 04.20" 1.000E-01 0.500 F 0.384 -1.477 o 691 3.06 Yes No
2006GY2 O C H 2016-06-02.17800 1.000E-05 10:30:49.620 1.500E-01 0.500 F 0.087 0.196 +31° 13' 58.50" 1.000E-01 0.500 F 0.384 -0.916 21.2 V 0.70 0.31 o 691 1.88 Yes Yes
2006GY2 O C H 2016-06-02.18031 1.000E-05 10:30:49.820 1.500E-01 0.500 F 0.087 0.777 +31° 13' 51.00" 1.000E-01 0.500 F 0.384 -2.126 o 691 4.51 No No
2008XO2 O C H 2016-06-02.18305 1.000E-05 11:00:47.040 1.500E-01 0.500 F 0.208 -0.119 +03° 16' 59.70" 1.000E-01 0.500 F 0.066 0.599 20.9 V 0.70 0.63 o 691 1.23 Yes Yes
2008XO2 O C H 2016-06-02.18534 1.000E-05 11:00:47.370 1.500E-01 0.500 F 0.208 0.045 +03° 16' 53.70" 1.000E-01 0.500 F 0.066 -0.313 20.9 V 0.70 0.63 o 691 0.64 Yes Yes
2008XO2 O C H 2016-06-02.18767 1.000E-05 11:00:47.710 1.500E-01 0.500 F 0.208 0.273 +03° 16' 48.70" 1.000E-01 0.500 F 0.066 -0.136 21.0 V 0.70 0.73 o 691 0.61 Yes Yes
2016HS19 O C H 2016-06-02.19647 1.000E-05 12:54:06.560 1.500E-01 0.500 F 0.160 -0.231 +30° 58' 40.10" 1.000E-01 0.500 F 0.234 0.002 o 691 0.47 Yes No
2016HS19 O C H 2016-06-02.20937 1.000E-05 12:54:05.570 1.500E-01 0.500 F 0.160 0.981 +30° 58' 54.90" 1.000E-01 0.500 F 0.234 -0.855 o 691 2.65 Yes No
2016JD34 O C H 2016-06-02.21450 1.000E-05 14:01:54.290 1.500E-01 0.500 F 0.151 0.351 +16° 28' 31.20" 1.000E-01 0.500 F 0.303 -0.101 20.9 V 0.70 -0.25 o 691 0.74 Yes Yes
2016HS19 O C H 2016-06-02.22207 1.000E-05 12:54:04.330 1.500E-01 0.500 F 0.160 -1.276 +30° 59' 11.50" 1.000E-01 0.500 F 0.234 0.378 22.0 V 0.70 0.11 o 691 2.69 Yes Yes
2016JD34 O C H 2016-06-02.22700 1.000E-05 14:01:53.890 1.500E-01 0.500 F 0.151 -0.353 +16° 28' 13.50" 1.000E-01 0.500 F 0.303 0.006 20.6 V 0.70 -0.55 o 691 0.71 Yes Yes
2016KO O C H 2016-06-02.24045 1.000E-05 13:29:24.880 1.500E-01 0.500 F 0.253 -0.173 +06° 53' 09.90" 1.000E-01 0.500 F 0.140 -0.728 21.0 V 0.70 -0.03 o 691 1.52 Yes Yes
2016KO O C H 2016-06-02.24275 1.000E-05 13:29:25.380 1.500E-01 0.500 F 0.253 0.251 +06° 53' 15.00" 1.000E-01 0.500 F 0.140 -0.704 o 691 1.52 Yes No
2016KO O C H 2016-06-02.24509 1.000E-05 13:29:25.850 1.500E-01 0.500 F 0.253 0.089 +06° 53' 20.30" 1.000E-01 0.500 F 0.140 -0.559 o 691 1.15 Yes No
2016JB6 O C H 2016-06-02.24775 1.000E-05 13:20:04.680 1.500E-01 0.500 F 0.220 -0.190 +02° 03' 15.20" 1.000E-01 0.500 F 0.079 0.011 21.2 V 0.70 -0.02 o 691 0.39 Yes Yes
2016JB6 O C H 2016-06-02.25080 1.000E-05 13:20:04.550 1.500E-01 0.500 F 0.220 -0.208 +02° 03' 12.30" 1.000E-01 0.500 F 0.079 -0.318 21.2 V 0.70 -0.02 o 691 0.77 Yes Yes
2016JB6 O C H 2016-06-02.25381 1.000E-05 13:20:04.450 1.500E-01 0.500 F 0.220 0.194 +02° 03' 10.40" 1.000E-01 0.500 F 0.079 0.320 21.1 V 0.70 -0.12 o 691 0.76 Yes Yes
2006UK O C H 2016-06-02.26317 1.000E-05 14:28:03.970 1.500E-01 0.500 F 0.155 -0.156 -14° 25' 29.30" 1.000E-01 0.500 F 0.129 0.099 19.7 V 0.70 0.47 o 691 0.37 Yes Yes
2006UK O C H 2016-06-02.26573 1.000E-05 14:28:04.190 1.500E-01 0.500 F 0.155 -0.192 -14° 25' 28.20" 1.000E-01 0.500 F 0.129 0.297 19.7 V 0.70 0.47 o 691 0.71 Yes Yes
2006UK O C H 2016-06-02.26829 1.000E-05 14:28:04.410 1.500E-01 0.500 F 0.155 -0.231 -14° 25' 27.50" 1.000E-01 0.500 F 0.129 0.094 19.7 V 0.70 0.47 o 691 0.50 Yes Yes
2014JY24 O C H 2016-06-02.27094 1.000E-05 14:36:02.660 1.500E-01 0.500 F 0.294 -0.439 -07° 06' 27.50" 1.000E-01 0.500 F 0.015 -0.064 20.5 V 0.70 0.12 o 691 0.89 Yes Yes
2014JY24 O C H 2016-06-02.27395 1.000E-05 14:36:02.450 1.500E-01 0.500 F 0.294 -0.205 -07° 06' 30.20" 1.000E-01 0.500 F 0.015 0.014 20.5 V 0.70 0.12 o 691 0.41 Yes Yes
2014JY24 O C H 2016-06-02.27695 1.000E-05 14:36:02.210 1.500E-01 0.500 F 0.294 -0.431 -07° 06' 33.00" 1.000E-01 0.500 F 0.015 -0.018 20.5 V 0.70 0.12 o 691 0.86 Yes Yes
2016JN17 O C H 2016-06-02.27985 1.000E-05 15:13:15.410 1.500E-01 0.500 F 0.040 0.214 +16° 11' 33.50" 1.000E-01 0.500 F 0.233 0.061 20.8 V 0.70 0.17 o 691 0.45 Yes Yes
2016JN17 O C H 2016-06-02.28218 1.000E-05 15:13:15.020 1.500E-01 0.500 F 0.040 0.127 +16° 11' 27.20" 1.000E-01 0.500 F 0.233 0.201 20.8 V 0.70 0.17 o 691 0.48 Yes Yes
2016JN17 O C H 2016-06-02.28451 1.000E-05 15:13:14.650 1.500E-01 0.500 F 0.040 0.326 +16° 11' 19.30" 1.000E-01 0.500 F 0.233 -1.258 o 691 2.61 Yes No
2016JH17 O C H 2016-06-02.29086 1.000E-05 15:56:10.110 1.500E-01 0.500 F 0.168 -0.225 +00° 47' 33.20" 1.000E-01 0.500 F 0.142 -0.239 20.4 V 0.70 0.16 o 691 0.66 Yes Yes
2016JC29 O C m 2016-06-02.29328 1.000E-05 15:57:53.410 1.500E-01 0.500 F 0.109 -0.063 -04° 29' 21.30" 1.000E-01 0.500 F 0.160 -0.141 21.5 V 0.70 0.35 o 691 0.34 Yes Yes
2016KT3 O C H 2016-06-02.29617 1.000E-05 16:17:36.880 1.500E-01 0.500 F 0.162 -0.364 +16° 18' 52.60" 1.000E-01 0.500 F 0.126 0.014 21.1 V 0.70 0.02 o 691 0.73 Yes Yes
2016KL O C H 2016-06-02.29862 1.000E-05 16:21:05.950 1.500E-01 0.500 F 0.138 -0.416 +02° 19' 18.90" 1.000E-01 0.500 F 0.235 0.340 20.4 V 0.70 -0.10 o 691 1.08 Yes Yes
2016JH17 O C H 2016-06-02.30069 1.000E-05 15:56:08.250 1.500E-01 0.500 F 0.168 -0.407 +00° 47' 14.40" 1.000E-01 0.500 F 0.142 -0.001 20.5 V 0.70 0.26 o 691 0.82 Yes Yes
2016JC29 O C m 2016-06-02.30310 1.000E-05 15:57:51.520 1.500E-01 0.500 F 0.109 -0.189 -04° 30' 10.10" 1.000E-01 0.500 F 0.160 0.172 21.9 V 0.70 0.75 o 691 0.55 Yes Yes
2016KT3 O C H 2016-06-02.30600 1.000E-05 16:17:38.170 1.500E-01 0.500 F 0.162 0.193 +16° 19' 05.00" 1.000E-01 0.500 F 0.126 -0.007 21.2 V 0.70 0.12 o 691 0.39 Yes Yes
2016KL O C H 2016-06-02.30844 1.000E-05 16:21:07.710 1.500E-01 0.500 F 0.138 0.547 +02° 18' 22.60" 1.000E-01 0.500 F 0.235 0.341 20.5 V 0.70 0.00 o 691 1.30 Yes Yes
2016JH17 O C H 2016-06-02.31053 1.000E-05 15:56:06.430 1.500E-01 0.500 F 0.168 0.031 +00° 46' 54.60" 1.000E-01 0.500 F 0.142 -0.738 o 691 1.48 Yes No
2016JC29 O C m 2016-06-02.31295 1.000E-05 15:57:49.680 1.500E-01 0.500 F 0.109 0.500 -04° 31' 00.40" 1.000E-01 0.500 F 0.160 -0.874 o 691 2.19 Yes No
2016KT3 O C H 2016-06-02.31584 1.000E-05 16:17:39.430 1.500E-01 0.500 F 0.162 0.284 +16° 19' 17.30" 1.000E-01 0.500 F 0.126 -0.094 21.4 V 0.70 0.32 o 691 0.60 Yes Yes
2016KL O C H 2016-06-02.31825 1.000E-05 16:21:09.380 1.500E-01 0.500 F 0.138 0.082 +02° 17' 25.70" 1.000E-01 0.500 F 0.235 -0.169 o 691 0.38 Yes No
2016KR O C H 2016-06-02.32038 1.000E-05 16:35:25.320 1.500E-01 0.500 F 0.140 0.665 +30° 42' 21.30" 1.000E-01 0.500 F 0.275 0.513 20.3 V 0.70 0.32 o 691 1.76 Yes Yes
2016KR O C H 2016-06-02.32159 1.000E-05 16:35:26.020 1.500E-01 0.500 F 0.140 0.721 +30° 42' 55.30" 1.000E-01 0.500 F 0.275 1.739 o 691 3.60 No No
2016KR O C H 2016-06-02.32280 1.000E-05 16:35:26.650 1.500E-01 0.500 F 0.140 -0.131 +30° 43' 24.50" 1.000E-01 0.500 F 0.275 -1.840 o 691 3.53 No No
2014OA2 O C H 2016-06-02.32702 1.000E-05 16:40:10.890 1.500E-01 0.612 F 0.081 -0.012 -00° 42' 48.70" 1.000E-01 0.612 F 0.067 -0.008 20.7 V 0.70 0.53 o 691 0.02 Yes Yes
2006UB64 O C H 2016-06-02.33005 1.000E-05 16:40:31.520 1.500E-01 0.500 F 0.027 0.192 -01° 26' 58.50" 1.000E-01 0.500 F 0.037 -0.567 o 691 1.21 Yes No
2014OA2 O C 2016-06-02.33005 1.000E-05 16:40:10.730 1.500E-01 0.612 F 0.081 -0.170 -00° 42' 49.30" 1.000E-01 0.612 F 0.067 -0.138 20.2 V 0.70 0.03 o 691 0.36 Yes Yes
2016EE158 O C H 2016-06-02.33305 1.000E-05 16:54:08.830 1.500E-01 0.500 F 0.195 -0.467 +07° 24' 53.70" 1.000E-01 0.500 F 0.192 -0.165 21.2 V 0.70 0.36 o 691 1.00 Yes Yes
2016KC4 O C H 2016-06-02.33539 1.000E-05 17:00:10.690 1.500E-01 0.500 F 0.190 0.518 +05° 50' 13.70" 1.000E-01 0.500 F 0.173 -0.430 o 691 1.35 Yes No
2014OA2 O C H 2016-06-02.33772 1.000E-05 16:40:10.380 1.500E-01 0.612 F 0.081 0.251 -00° 42' 51.00" 1.000E-01 0.612 F 0.067 -0.648 20.5 V 0.70 0.33 o 691 1.14 Yes Yes
2006UB64 O C H 2016-06-02.34076 1.000E-05 16:40:30.130 1.500E-01 0.500 F 0.027 0.672 -01° 27' 05.80" 1.000E-01 0.500 F 0.037 -0.563 o 691 1.77 Yes No
2014OA2 O C 2016-06-02.34076 1.000E-05 16:40:10.200 1.500E-01 0.612 F 0.081 -0.204 -00° 42' 50.90" 1.000E-01 0.612 F 0.067 -0.076 20.1 V 0.70 -0.07 o 691 0.36 Yes Yes
2016EE158 O C H 2016-06-02.34374 1.000E-05 16:54:10.350 1.500E-01 0.500 F 0.195 0.127 +07° 24' 44.70" 1.000E-01 0.500 F 0.192 0.015 20.9 V 0.70 0.06 o 691 0.26 Yes Yes
2016KC4 O C H 2016-06-02.34608 1.000E-05 17:00:09.280 1.500E-01 0.500 F 0.190 -0.398 +05° 49' 42.50" 1.000E-01 0.500 F 0.173 -0.500 20.1 V 0.70 -0.16 o 691 1.29 Yes Yes
2014OA2 O C H 2016-06-02.34842 1.000E-05 16:40:09.830 1.500E-01 0.612 F 0.081 -0.107 -00° 42' 52.30" 1.000E-01 0.612 F 0.067 -0.285 20.5 V 0.70 0.33 o 691 0.50 Yes Yes
2006UB64 O C H 2016-06-02.35145 1.000E-05 16:40:28.700 1.500E-01 0.500 F 0.027 0.495 -01° 27' 13.20" 1.000E-01 0.500 F 0.037 -0.674 o 691 1.69 Yes No
2014OA2 O C 2016-06-02.35145 1.000E-05 16:40:09.670 1.500E-01 0.612 F 0.081 -0.277 -00° 42' 52.70" 1.000E-01 0.612 F 0.067 -0.213 20.2 V 0.70 0.03 o 691 0.57 Yes Yes
2016EE158 O C H 2016-06-02.35446 1.000E-05 16:54:11.880 1.500E-01 0.500 F 0.195 0.768 +07° 24' 34.60" 1.000E-01 0.500 F 0.192 -0.838 o 691 2.29 Yes No
2016KC4 O C H 2016-06-02.35680 1.000E-05 17:00:07.980 1.500E-01 0.500 F 0.190 0.379 +05° 49' 11.00" 1.000E-01 0.500 F 0.173 -0.738 o 691 1.67 Yes No
2016KZ O C H 2016-06-02.36152 1.000E-05 17:15:46.780 1.500E-01 0.500 F 0.135 -0.245 +10° 00' 08.60" 1.000E-01 0.500 F 0.167 -0.395 21.1 V 0.70 0.29 o 691 0.94 Yes Yes
2016JE34 O C H 2016-06-02.36383 1.000E-05 17:37:29.530 1.500E-01 0.500 F -0.012 0.207 +11° 15' 34.40" 1.000E-01 0.500 F 0.189 0.263 20.8 V 0.70 0.17 o 691 0.68 Yes Yes
2016KZ O C H 2016-06-02.36841 1.000E-05 17:15:46.340 1.500E-01 0.500 F 0.135 0.114 +10° 00' 10.90" 1.000E-01 0.500 F 0.167 -0.158 21.0 V 0.70 0.19 o 691 0.39 Yes Yes
2016JE34 O C H 2016-06-02.37070 1.000E-05 17:37:29.830 1.500E-01 0.500 F -0.012 0.056 +11° 15' 39.10" 1.000E-01 0.500 F 0.189 0.067 20.9 V 0.70 0.27 o 691 0.18 Yes Yes
2016KZ O C H 2016-06-02.37492 1.000E-05 17:15:45.920 1.500E-01 0.500 F 0.135 0.384 +10° 00' 12.30" 1.000E-01 0.500 F 0.167 -0.702 o 691 1.61 Yes No
2016JE34 O C H 2016-06-02.37722 1.000E-05 17:37:30.160 1.500E-01 0.500 F -0.012 0.573 +11° 15' 43.10" 1.000E-01 0.500 F 0.189 -0.572 o 691 1.63 Yes No
2016JK34 O C m 2016-06-02.38886 1.000E-05 21:06:43.300 1.500E-01 0.500 F 0.006 -2.344 +23° 25' 06.30" 1.000E-01 0.500 F 0.195 -0.068 20.3 V 0.70 0.05 o 691 4.40 No Yes
2016JK34 O C m 2016-06-02.39069 1.000E-05 21:06:46.700 1.500E-01 0.500 F 0.006 -1.700 +23° 25' 07.60" 1.000E-01 0.500 F 0.195 -0.870 o 691 3.60 No No
2016JK34 O C m 2016-06-02.39259 1.000E-05 21:06:50.180 1.500E-01 0.500 F 0.006 -1.715 +23° 25' 10.60" 1.000E-01 0.500 F 0.195 -0.043 20.5 V 0.70 0.25 o 691 3.21 No Yes
2016JL6 O C m 2016-06-02.39537 1.000E-05 19:14:26.180 1.500E-01 0.500 F 0.026 -2.403 -13° 34' 31.50" 1.000E-01 0.500 F 0.419 -0.340 o 691 4.60 No No
2016JL6 O C m 2016-06-02.39725 1.000E-05 19:14:27.210 1.500E-01 0.500 F 0.026 -1.292 -13° 34' 30.80" 1.000E-01 0.500 F 0.419 0.176 o 691 2.77 Yes No
2016JL6 O C m 2016-06-02.39915 1.000E-05 19:14:28.120 1.500E-01 0.500 F 0.026 -2.077 -13° 34' 30.60" 1.000E-01 0.500 F 0.419 0.187 20.4 V 0.70 0.09 o 691 3.95 No Yes
2003KZ18 O C m 2016-06-02.41566 1.000E-05 21:08:25.230 1.500E-01 0.500 F -0.075 0.200 +10° 55' 02.30" 1.000E-01 0.500 F 0.340 -0.843 o 691 1.77 Yes No
2015XD130 O C H 2016-06-02.41778 1.000E-05 22:03:04.700 1.500E-01 0.500 F 0.002 0.354 +21° 48' 41.70" 1.000E-01 0.500 F 0.254 -0.974 21.4 V 0.70 0.70 o 691 2.14 Yes Yes
2003KZ18 O C m 2016-06-02.42268 1.000E-05 21:08:26.030 1.500E-01 0.500 F -0.075 0.195 +10° 55' 50.80" 1.000E-01 0.500 F 0.340 0.111 o 691 0.47 Yes No
2015XD130 O C H 2016-06-02.42480 1.000E-05 22:03:04.230 1.500E-01 0.500 F 0.002 1.133 +21° 49' 06.00" 1.000E-01 0.500 F 0.254 -0.531 21.3 V 0.70 0.60 o 691 2.56 Yes Yes
2003KZ18 O C m 2016-06-02.42975 1.000E-05 21:08:26.840 1.500E-01 0.500 F -0.075 0.275 +10° 56' 38.30" 1.000E-01 0.500 F 0.340 -0.275 o 691 0.81 Yes No
2015XD130 O C H 2016-06-02.43188 1.000E-05 22:03:03.610 1.500E-01 0.500 F 0.002 -0.095 +21° 49' 30.60" 1.000E-01 0.500 F 0.254 0.019 o 691 0.20 Yes No
2014KD91 O C H 2016-06-02.43756 1.000E-05 22:55:57.810 1.500E-01 0.500 F -0.106 0.238 +24° 24' 23.40" 1.000E-01 0.500 F 0.281 -0.217 22.0 V 0.70 0.15 o 691 0.64 Yes Yes
2014KD91 O C H 2016-06-02.44135 1.000E-05 22:55:58.190 1.500E-01 0.500 F -0.106 1.058 +24° 24' 25.80" 1.000E-01 0.500 F 0.281 -0.945 o 691 2.84 Yes No
2014KD91 O C H 2016-06-02.44512 1.000E-05 22:55:58.510 1.500E-01 0.500 F -0.106 1.083 +24° 24' 29.10" 1.000E-01 0.500 F 0.281 -0.755 o 691 2.64 Yes No
2016LP O C H 2016-06-03.18315 1.000E-05 16:09:43.520 1.500E-01 0.500 F 0.178 0.024 +29° 52' 55.20" 1.000E-01 0.500 F 0.193 -1.622 o 691 3.21 No No
2016LP O C H 2016-06-03.18545 1.000E-05 16:09:42.000 1.500E-01 0.500 F 0.178 -1.987 +29° 52' 34.00" 1.000E-01 0.500 F 0.193 -2.846 o 691 6.87 No No
2016LP O C H 2016-06-03.18776 1.000E-05 16:09:40.790 1.500E-01 0.500 F 0.178 0.119 +29° 52' 17.00" 1.000E-01 0.500 F 0.193 0.226 o 691 0.52 Yes No
2016LO O C H 2016-06-03.20153 1.000E-05 17:38:52.440 1.500E-01 0.500 F 0.050 1.321 +20° 13' 45.90" 1.000E-01 0.500 F 0.251 -0.639 20.6 V 0.70 0.21 o 691 3.02 Yes Yes
2016LO O C H 2016-06-03.20383 1.000E-05 17:38:53.750 1.500E-01 0.500 F 0.050 0.198 +20° 13' 25.60" 1.000E-01 0.500 F 0.251 -0.608 o 691 1.32 Yes No
2016LO O C H 2016-06-03.20614 1.000E-05 17:38:55.120 1.500E-01 0.500 F 0.050 -0.142 +20° 13' 05.30" 1.000E-01 0.500 F 0.251 -0.480 o 691 1.03 Yes No
2016KT3 O C H 2016-06-03.21722 1.000E-05 16:19:50.920 1.500E-01 0.500 F 0.162 0.241 +16° 37' 50.00" 1.000E-01 0.500 F 0.126 -0.531 o 691 1.17 Yes No
2016KC4 O C 2016-06-03.22373 1.000E-05 16:58:27.890 1.500E-01 0.500 F 0.143 -0.213 +05° 05' 19.70" 1.000E-01 0.500 F 0.195 0.133 20.1 V 0.70 -0.06 o 691 0.51 Yes Yes
2016KC4 O C 2016-06-03.23294 1.000E-05 16:58:26.610 1.500E-01 0.500 F 0.143 -1.080 +05° 04' 50.30" 1.000E-01 0.500 F 0.195 -0.236 20.1 V 0.70 -0.06 o 691 2.22 Yes Yes
2016KT3 O C H 2016-06-03.23562 1.000E-05 16:19:53.290 1.500E-01 0.500 F 0.162 -0.153 +16° 38' 13.20" 1.000E-01 0.500 F 0.126 0.011 21.1 V 0.70 0.01 o 691 0.31 Yes Yes
2016KC4 O C 2016-06-03.24212 1.000E-05 16:58:25.430 1.500E-01 0.500 F 0.143 -0.446 +05° 04' 21.20" 1.000E-01 0.500 F 0.195 -0.366 20.2 V 0.70 0.04 o 691 1.16 Yes Yes
2002CX58 O C 2016-06-03.24488 1.000E-05 16:39:54.130 1.500E-01 0.500 F -0.101 -0.170 -13° 47' 38.50" 1.000E-01 0.500 F 0.258 -0.007 20.2 V 0.70 0.17 o 691 0.34 Yes Yes
2002KL6 O C 2016-06-03.24771 1.000E-05 16:37:09.770 1.500E-01 0.500 F -0.164 -0.062 -11° 37' 54.40" 1.000E-01 0.500 F 0.142 -0.048 15.7 V 0.70 0.14 o 691 0.16 Yes Yes
2002CX58 O C 2016-06-03.25287 1.000E-05 16:39:54.230 1.500E-01 0.500 F -0.101 -0.270 -13° 47' 50.40" 1.000E-01 0.500 F 0.258 -0.063 20.1 V 0.70 0.07 o 691 0.56 Yes Yes
2002KL6 O C 2016-06-03.25573 1.000E-05 16:37:09.810 1.500E-01 0.500 F -0.164 -0.070 -11° 37' 43.60" 1.000E-01 0.500 F 0.142 -0.125 15.7 V 0.70 0.14 o 691 0.29 Yes Yes
2002CX58 O C 2016-06-03.26091 1.000E-05 16:39:54.340 1.500E-01 0.500 F -0.101 -0.207 -13° 48' 02.30" 1.000E-01 0.500 F 0.258 -0.069 20.2 V 0.70 0.17 o 691 0.44 Yes Yes
2002KL6 O C 2016-06-03.26377 1.000E-05 16:37:09.850 1.500E-01 0.500 F -0.164 -0.057 -11° 37' 32.60" 1.000E-01 0.500 F 0.142 -0.047 15.7 V 0.70 0.14 o 691 0.15 Yes Yes
2016LA2 O C H 2016-06-03.27631 1.000E-05 15:04:59.350 1.500E-01 0.500 F 0.334 0.163 +04° 08' 37.50" 1.000E-01 0.500 F 0.199 -2.449 o 691 4.82 No No
2016LA2 O C H 2016-06-03.28446 1.000E-05 15:04:59.400 1.500E-01 0.500 F 0.334 0.582 +04° 09' 04.90" 1.000E-01 0.500 F 0.199 -0.972 21.4 V 0.70 -0.05 o 691 2.31 Yes Yes
2016LA2 O C H 2016-06-03.29256 1.000E-05 15:04:59.390 1.500E-01 0.500 F 0.334 0.089 +04° 09' 32.90" 1.000E-01 0.500 F 0.199 1.268 21.6 V 0.70 0.15 o 691 2.59 Yes Yes
2016KL O C H 2016-06-03.35178 1.000E-05 16:25:43.510 1.500E-01 0.500 F 0.094 0.550 +00° 25' 41.80" 1.000E-01 0.500 F 0.274 -1.055 o 691 2.40 Yes No
2014OA2 O C H 2016-06-03.35386 1.000E-05 16:39:30.850 1.500E-01 0.500 F 0.081 -0.034 -00° 45' 51.10" 1.000E-01 0.500 F 0.067 -0.147 20.2 V 0.70 0.05 o 691 0.30 Yes Yes
2016KL O C H 2016-06-03.35829 1.000E-05 16:25:44.970 1.500E-01 0.500 F 0.094 -0.191 +00° 24' 55.20" 1.000E-01 0.500 F 0.274 -0.073 20.2 V 0.70 0.01 o 691 0.41 Yes Yes
2014OA2 O C H 2016-06-03.36036 1.000E-05 16:39:30.520 1.500E-01 0.500 F 0.081 -0.135 -00° 45' 52.40" 1.000E-01 0.500 F 0.067 -0.154 20.5 V 0.70 0.35 o 691 0.41 Yes Yes
2016KL O C H 2016-06-03.36478 1.000E-05 16:25:46.510 1.500E-01 0.500 F 0.094 0.190 +00° 24' 07.60" 1.000E-01 0.500 F 0.274 -0.162 20.2 V 0.70 0.01 o 691 0.50 Yes Yes
2014OA2 O C H 2016-06-03.36685 1.000E-05 16:39:30.170 1.500E-01 0.500 F 0.081 -0.557 -00° 45' 53.70" 1.000E-01 0.500 F 0.067 -0.162 20.5 V 0.70 0.35 o 691 1.16 Yes Yes
2016LC2 O C H 2016-06-03.40334 1.000E-05 17:05:20.230 1.500E-01 0.500 F 0.038 -0.163 +17° 57' 19.60" 1.000E-01 0.500 F 0.237 -0.336 o 691 0.78 Yes No
2016LC2 O C H 2016-06-03.41237 1.000E-05 17:05:18.480 1.500E-01 0.500 F 0.038 -0.139 +17° 56' 44.10" 1.000E-01 0.500 F 0.237 -0.857 o 691 1.82 Yes No
2016LC2 O C H 2016-06-03.42143 1.000E-05 17:05:16.760 1.500E-01 0.500 F 0.038 0.353 +17° 56' 09.10" 1.000E-01 0.500 F 0.237 -0.729 o 691 1.69 Yes No
2016LO1 O C H 2016-06-03.43296 1.000E-05 17:10:48.820 1.500E-01 0.500 F 0.045 1.668 +17° 37' 47.10" 1.000E-01 0.500 F 0.248 -0.939 o 691 3.49 No No
2016LO1 O C H 2016-06-03.43845 1.000E-05 17:10:46.470 1.500E-01 0.500 F 0.045 -0.433 +17° 39' 24.10" 1.000E-01 0.500 F 0.248 -0.388 o 691 1.30 Yes No
2016LO1 O C H 2016-06-03.44398 1.000E-05 17:10:44.270 1.500E-01 0.500 F 0.045 -0.306 +17° 41' 02.00" 1.000E-01 0.500 F 0.248 0.493 o 691 1.26 Yes No
2016LV8 O C H 2016-06-04.21443 1.000E-05 16:01:59.470 1.500E-01 0.500 F 0.112 -0.069 +05° 18' 46.20" 1.000E-01 0.500 F 0.176 -0.418 o 691 0.85 Yes No
2016LV8 O C H 2016-06-04.22348 1.000E-05 16:01:58.350 1.500E-01 0.500 F 0.112 0.636 +05° 18' 56.00" 1.000E-01 0.500 F 0.176 -0.240 o 691 1.37 Yes No
2016LV8 O C H 2016-06-04.23256 1.000E-05 16:01:57.080 1.500E-01 0.500 F 0.112 -0.829 +05° 19' 05.40" 1.000E-01 0.500 F 0.176 -0.490 o 691 1.94 Yes No
2003KO2 O C H 2016-06-04.27719 1.000E-05 12:05:45.130 1.500E-01 0.500 F 0.053 0.116 +30° 30' 21.40" 1.000E-01 0.500 F 0.276 -0.106 20.8 V 0.70 0.06 o 691 0.31 Yes Yes
2003KO2 O C H 2016-06-04.28718 1.000E-05 12:05:45.970 1.500E-01 0.500 F 0.053 -0.047 +30° 30' 18.00" 1.000E-01 0.500 F 0.276 -0.280 20.6 V 0.70 -0.14 o 691 0.57 Yes Yes
2014JY24 O C H 2016-06-04.30275 1.000E-05 14:33:46.120 1.500E-01 0.500 F 0.246 -0.027 -07° 37' 19.50" 1.000E-01 0.500 F 0.016 0.096 20.6 V 0.70 0.10 o 691 0.20 Yes Yes
2016JS28 O C H 2016-06-04.30551 1.000E-05 14:42:31.740 1.500E-01 0.500 F 0.078 0.434 -04° 35' 14.20" 1.000E-01 0.500 F 0.097 -0.975 o 691 2.15 Yes No
2016LA2 O C H 2016-06-04.30848 1.000E-05 15:05:11.460 1.500E-01 0.500 F 0.268 -0.021 +05° 03' 25.60" 1.000E-01 0.500 F 0.193 -0.063 o 691 0.14 Yes No
2014JY24 O C H 2016-06-04.31121 1.000E-05 14:33:45.570 1.500E-01 0.500 F 0.246 0.129 -07° 37' 27.10" 1.000E-01 0.500 F 0.016 0.059 20.5 V 0.70 0.00 o 691 0.28 Yes Yes
2016JS28 O C H 2016-06-04.31401 1.000E-05 14:42:31.260 1.500E-01 0.500 F 0.078 -0.363 -04° 35' 09.30" 1.000E-01 0.500 F 0.097 -0.255 21.3 V 0.70 0.12 o 691 0.90 Yes Yes
2016LA2 O C H 2016-06-04.31697 1.000E-05 15:05:11.560 1.500E-01 0.500 F 0.268 0.719 +05° 03' 50.30" 1.000E-01 0.500 F 0.193 -2.348 o 691 4.81 No No
2014JY24 O C H 2016-06-04.31969 1.000E-05 14:33:44.980 1.500E-01 0.500 F 0.246 -0.309 -07° 37' 34.40" 1.000E-01 0.500 F 0.016 0.336 20.7 V 0.70 0.20 o 691 0.91 Yes Yes
2016JS28 O C H 2016-06-04.32249 1.000E-05 14:42:30.820 1.500E-01 0.500 F 0.078 -0.603 -04° 35' 05.00" 1.000E-01 0.500 F 0.097 -0.126 21.4 V 0.70 0.22 o 691 1.25 Yes Yes
2016LA2 O C H 2016-06-04.32542 1.000E-05 15:05:11.610 1.500E-01 0.500 F 0.268 0.686 +05° 04' 17.80" 1.000E-01 0.500 F 0.193 -1.700 o 691 3.59 No No
2016LE2 O C H 2016-06-04.33401 1.000E-05 17:02:16.860 1.500E-01 0.500 F -0.020 0.519 -01° 55' 30.50" 1.000E-01 0.500 F 0.125 -1.831 o 691 3.72 No No
2016LE2 O C H 2016-06-04.34245 1.000E-05 17:02:15.910 1.500E-01 0.500 F -0.020 -0.331 -01° 55' 00.30" 1.000E-01 0.500 F 0.125 -0.479 21.4 V 0.70 0.39 o 691 1.20 Yes Yes
2016LE2 O C H 2016-06-04.35083 1.000E-05 17:02:15.060 1.500E-01 0.500 F -0.020 0.219 -01° 54' 33.00" 1.000E-01 0.500 F 0.125 -1.825 o 691 3.59 No No
2016LQ O C H 2016-06-04.35305 1.000E-05 17:09:56.070 1.500E-01 0.500 F -0.043 0.305 -00° 58' 19.90" 1.000E-01 0.500 F 0.179 0.124 20.8 V 0.70 0.32 o 691 0.70 Yes Yes
2016EE158 O C H 2016-06-04.35507 1.000E-05 16:59:31.870 1.500E-01 0.500 F 0.252 0.057 +06° 54' 38.40" 1.000E-01 0.500 F 0.200 -0.341 21.0 V 0.70 0.11 o 691 0.69 Yes Yes
2016LQ O C H 2016-06-04.35957 1.000E-05 17:09:52.640 1.500E-01 0.500 F -0.043 1.129 -00° 58' 58.10" 1.000E-01 0.500 F 0.179 -0.069 o 691 2.37 Yes No
2016EE158 O C H 2016-06-04.36161 1.000E-05 16:59:32.700 1.500E-01 0.500 F 0.252 -0.268 +06° 54' 32.30" 1.000E-01 0.500 F 0.200 -0.206 21.0 V 0.70 0.11 o 691 0.68 Yes Yes
2016LQ O C H 2016-06-04.36615 1.000E-05 17:09:49.140 1.500E-01 0.500 F -0.043 1.257 -00° 59' 36.70" 1.000E-01 0.500 F 0.179 -0.375 o 691 2.73 Yes No
2016EE158 O C H 2016-06-04.36818 1.000E-05 16:59:33.520 1.500E-01 0.500 F 0.252 -0.829 +06° 54' 26.30" 1.000E-01 0.500 F 0.200 0.072 21.2 V 0.70 0.31 o 691 1.67 Yes Yes
2016LT1 O C H 2016-06-05.29471 1.000E-05 15:35:56.520 1.500E-01 0.500 F -0.048 0.016 -00° 30' 13.80" 1.000E-01 0.500 F 0.132 0.190 20.8 V 0.70 0.04 o 691 0.38 Yes Yes
2016LV8 O C 2016-06-05.29882 1.000E-05 15:59:42.390 1.500E-01 0.500 F 0.098 -0.143 +05° 37' 51.60" 1.000E-01 0.500 F 0.120 0.400 21.3 V 0.70 -0.12 o 691 0.86 Yes Yes
2016LT1 O C H 2016-06-05.30150 1.000E-05 15:35:57.620 1.500E-01 0.500 F -0.048 0.405 -00° 30' 39.20" 1.000E-01 0.500 F 0.132 -0.728 o 691 1.68 Yes No
2016LV8 O C 2016-06-05.30564 1.000E-05 15:59:41.510 1.500E-01 0.500 F 0.098 0.049 +05° 37' 58.10" 1.000E-01 0.500 F 0.120 -0.250 21.3 V 0.70 -0.12 o 691 0.51 Yes Yes
2016LV8 O C 2016-06-05.31246 1.000E-05 15:59:40.550 1.500E-01 0.500 F 0.098 -0.955 +05° 38' 06.00" 1.000E-01 0.500 F 0.120 0.502 21.5 V 0.70 0.08 o 691 2.18 Yes Yes
2016KC4 O C H 2016-06-05.34476 1.000E-05 16:53:46.450 1.500E-01 0.500 F 0.054 -0.036 +03° 01' 45.20" 1.000E-01 0.500 F 0.208 0.304 20.0 V 0.70 0.08 o 691 0.62 Yes Yes
2016KC4 O C H 2016-06-05.35101 1.000E-05 16:53:45.470 1.500E-01 0.500 F 0.054 0.010 +03° 01' 20.80" 1.000E-01 0.500 F 0.208 0.019 20.1 V 0.70 0.18 o 691 0.04 Yes Yes
2014OA2 O C H 2016-06-05.36513 1.000E-05 16:38:10.920 1.500E-01 0.500 F 0.066 -0.275 -00° 54' 02.60" 1.000E-01 0.500 F 0.087 0.114 20.4 V 0.70 0.29 o 691 0.60 Yes Yes
2014OA2 O C H 2016-06-05.37028 1.000E-05 16:38:10.660 1.500E-01 0.500 F 0.066 -0.269 -00° 54' 03.80" 1.000E-01 0.500 F 0.087 0.401 20.2 V 0.70 0.09 o 691 0.97 Yes Yes
2014OA2 O C H 2016-06-05.37550 1.000E-05 16:38:10.470 1.500E-01 0.500 F 0.066 0.826 -00° 54' 06.80" 1.000E-01 0.500 F 0.087 -1.092 20.1 V 0.70 -0.01 o 691 2.75 Yes Yes
2016HM2 O C H 2016-06-05.37883 1.000E-05 17:25:34.880 1.500E-01 0.500 F 0.144 -0.696 +08° 33' 08.10" 1.000E-01 0.500 F 0.183 0.023 20.4 V 0.70 0.18 o 691 1.40 Yes Yes
2016JE34 O C 2016-06-05.38113 1.000E-05 17:40:10.320 1.500E-01 0.500 F 0.012 -0.114 +11° 48' 56.60" 1.000E-01 0.500 F 0.213 0.179 20.4 V 0.70 -0.15 o 691 0.43 Yes Yes
2016HM2 O C H 2016-06-05.38522 1.000E-05 17:25:34.440 1.500E-01 0.500 F 0.144 -0.008 +08° 32' 57.30" 1.000E-01 0.500 F 0.183 -0.104 20.6 V 0.70 0.38 o 691 0.21 Yes Yes
2016JE34 O C 2016-06-05.38755 1.000E-05 17:40:10.610 1.500E-01 0.500 F 0.012 -0.111 +11° 49' 00.20" 1.000E-01 0.500 F 0.213 -0.087 20.3 V 0.70 -0.25 o 691 0.29 Yes Yes
2016LG2 O C H 2016-06-05.38962 1.000E-05 17:52:01.270 1.500E-01 0.500 F -0.009 -0.188 +15° 35' 52.50" 1.000E-01 0.500 F 0.309 0.285 19.7 V 0.70 0.25 o 691 0.70 Yes Yes
2016HM2 O C H 2016-06-05.39169 1.000E-05 17:25:33.920 1.500E-01 0.500 F 0.144 -0.430 +08° 32' 46.30" 1.000E-01 0.500 F 0.183 -0.289 20.6 V 0.70 0.38 o 691 1.04 Yes Yes
2016JE34 O C 2016-06-05.39403 1.000E-05 17:40:10.890 1.500E-01 0.500 F 0.012 -0.303 +11° 49' 04.10" 1.000E-01 0.500 F 0.213 -0.081 20.3 V 0.70 -0.25 o 691 0.64 Yes Yes
2016LG2 O C H 2016-06-05.39604 1.000E-05 17:52:01.780 1.500E-01 0.500 F -0.009 -0.309 +15° 36' 48.10" 1.000E-01 0.500 F 0.309 0.272 19.7 V 0.70 0.25 o 691 0.85 Yes Yes
2015TE323 O C 2016-06-06.15780 1.000E-05 09:14:23.190 1.500E-01 0.500 F 0.054 -0.383 +16° 54' 05.00" 1.000E-01 0.500 F 0.173 0.557 20.7 V 0.70 0.29 o 691 1.37 Yes Yes
2011UU20 O C 2016-06-06.16008 1.000E-05 10:01:35.590 1.500E-01 0.500 F 0.135 -0.662 +02° 59' 37.20" 1.000E-01 0.500 F 0.132 0.313 21.0 V 0.70 0.10 o 691 1.47 Yes Yes
2008XO2 O C 2016-06-06.16241 1.000E-05 11:10:34.400 1.500E-01 0.500 F 0.112 -0.919 +00° 48' 47.00" 1.000E-01 0.500 F 0.210 0.387 20.6 V 0.70 0.31 o 691 2.00 Yes Yes
2015TE323 O C 2016-06-06.16498 1.000E-05 09:14:25.810 1.500E-01 0.500 F 0.054 1.866 +16° 53' 57.90" 1.000E-01 0.500 F 0.173 -1.188 21.0 V 0.70 0.59 o 691 4.34 No Yes
2011UU20 O C 2016-06-06.16730 1.000E-05 10:01:36.870 1.500E-01 0.500 F 0.135 0.834 +02° 59' 24.10" 1.000E-01 0.500 F 0.132 -0.276 21.4 V 0.70 0.50 o 691 1.76 Yes Yes
2015TE323 O C 2016-06-06.17220 1.000E-05 09:14:28.100 1.500E-01 0.500 F 0.054 -0.832 +16° 53' 53.30" 1.000E-01 0.500 F 0.173 -0.399 o 691 1.88 Yes No
2011UU20 O C 2016-06-06.17451 1.000E-05 10:01:37.990 1.500E-01 0.500 F 0.135 -0.050 +02° 59' 10.90" 1.000E-01 0.500 F 0.132 -0.983 21.3 V 0.70 0.40 o 691 1.97 Yes Yes
2008XO2 O C 2016-06-06.17685 1.000E-05 11:10:36.580 1.500E-01 0.500 F 0.112 0.139 +00° 48' 13.70" 1.000E-01 0.500 F 0.210 -0.418 20.6 V 0.70 0.31 o 691 0.89 Yes Yes
2016JU33 O C H 2016-06-06.18457 1.000E-05 14:30:36.500 1.500E-01 0.500 F 0.321 -0.361 -26° 07' 14.00" 1.000E-01 0.500 F 0.387 0.045 20.4 V 0.70 0.01 o 691 0.73 Yes Yes
2014MS67 O C H 2016-06-06.18840 1.000E-05 14:18:34.280 1.500E-01 0.500 F 0.193 -0.127 -22° 22' 00.60" 1.000E-01 0.500 F 0.039 -0.499 20.4 V 0.70 0.59 o 691 1.07 Yes Yes
2016JU33 O C H 2016-06-06.19275 1.000E-05 14:30:37.500 1.500E-01 0.500 F 0.321 -0.716 -26° 07' 08.10" 1.000E-01 0.500 F 0.387 -0.305 20.1 V 0.70 -0.29 o 691 1.56 Yes Yes
2014MS67 O C H 2016-06-06.19661 1.000E-05 14:18:34.890 1.500E-01 0.500 F 0.193 0.069 -22° 21' 25.20" 1.000E-01 0.500 F 0.039 0.035 20.4 V 0.70 0.59 o 691 0.16 Yes Yes
2016JU33 O C H 2016-06-06.20097 1.000E-05 14:30:38.580 1.500E-01 0.500 F 0.321 -0.053 -26° 07' 01.30" 1.000E-01 0.500 F 0.387 0.191 20.4 V 0.70 0.01 o 691 0.40 Yes Yes

[1-200] [201-400] [401-600] [601-800] [801-1000] [1001-1200] [1201-1400] [1401-1600] [1601-1800] [1801-2000] [2001-2200] [2201-2400] [2401-2600] [2601-2800] [2801-3000] [3001-3200] [3201-3400] [3401-3600] [3601-3800] [3801-4000] [4001-4200] [4201-4400] [4401-4600] [4601-4800] [4801-5000] [5001-5200] [5201-5400] [5401-5600] [5601-5800] [5801-6000] [6001-6200] [6201-6400] [6401-6600] [6601-6800] [6801-7000] [7001-7200] [7201-7400] [7401-7600] [7601-7800] [7801-8000] [8001-8200] [8201-8400] [8401-8600] [8601-8800] [8801-9000] [9001-9200] [9201-9400] [9401-9600] [9601-9800] [9801-10000] [10001-10200] [10201-10400] [10401-10600] [10601-10800] [10801-11000] [11001-11200] [11201-11400] [11401-11600] [11601-11800] [11801-12000] [12001-12200] [12201-12400] [12401-12600] [12601-12800] [12801-13000] [13001-13200] [13201-13400] [13401-13600] [13601-13800] [13801-14000] [14001-14200] [14201-14400] [14401-14600] [14601-14800] [14801-15000] [15001-15200] [15201-15400] [15401-15600] [15601-15800] [15801-16000] [16001-16200] [16201-16400] [16401-16600] [16601-16800] [16801-17000] [17001-17200] [17201-17400] [17401-17600] [17601-17800] [17801-18000] [18001-18200] [18201-18400] [18401-18600] [18601-18800] [18801-19000] [19001-19200] [19201-19400] [19401-19600] [19601-19800] [19801-20000] [20001-20200] [20201-20400] [20401-20600] [20601-20800] [20801-21000] [21001-21200] [21201-21400] [21401-21600] [21601-21800] [21801-22000] [22001-22200] [22201-22400] [22401-22600] [22601-22800] [22801-23000] [23001-23200] [23201-23400] [23401-23600] [23601-23800] [23801-24000] [24001-24200] [24201-24400] [24401-24600] [24601-24800] [24801-25000] [25001-25200] [25201-25400] [25401-25600] [25601-25800] [25801-26000] [26001-26200] [26201-26400] [26401-26600] [26601-26800] [26801-27000] [27001-27200] [27201-27400] [27401-27600] [27601-27800] [27801-28000] [28001-28200] [28201-28400] [28401-28600] [28601-28800] [28801-29000] [29001-29200] [29201-29400] [29401-29600] [29601-29800] [29801-30000] [30001-30200] [30201-30400] [30401-30600] [30601-30800] [30801-31000] [31001-31200] [31201-31400] [31401-31600] [31601-31800] [31801-32000] [32001-32200] [32201-32400] [32401-32600] [32601-32800] [32801-33000] [33001-33200] [33201-33400] [33401-33600] [33601-33800] [33801-34000] [34001-34200] [34201-34400] [34401-34600] [34601-34800] [34801-35000] [35001-35200] [35201-35400] [35401-35600] [35601-35800] [35801-36000] [36001-36200] [36201-36400] [36401-36600] [36601-36800] [36801-37000] [37001-37200] [37201-37400] [37401-37600] [37601-37800] [37801-38000] [38001-38200] [38201-38400] [38401-38600] [38601-38800] [38801-39000] [39001-39200] [39201-39400] [39401-39600] [39601-39800] [39801-40000] [40001-40200] [40201-40400] [40401-40600] [40601-40800] [40801-41000] [41001-41200] [41201-41400] [41401-41600] [41601-41800] [41801-42000] [42001-42200] [42201-42400] [42401-42600] [42601-42800] [42801-43000] [43001-43200] [43201-43400] [43401-43600] [43601-43800] [43801-44000] [44001-44200] [44201-44400] [44401-44600] [44601-44800] [44801-45000] [45001-45200] [45201-45400] [45401-45600] [45601-45800] [45801-46000] [46001-46200] [46201-46400] [46401-46600] [46601-46800] [46801-47000] [47001-47200] [47201-47400] [47401-47600] [47601-47800] [47801-48000] [48001-48200] [48201-48400] [48401-48600] [48601-48800] [48801-49000] [49001-49200] [49201-49400] [49401-49600] [49601-49800] [49801-50000] [50001-50200] [50201-50388]